sensor_id;sensor_type;location;lat;lon;timestamp;temperature;humidity
6581;DHT22;3324;50.796;7.228;2024-03-08T00:00:13;5.00;99.90
6581;DHT22;3324;50.796;7.228;2024-03-08T00:02:39;5.00;99.90
6581;DHT22;3324;50.796;7.228;2024-03-08T00:05:08;5.00;99.90
6581;DHT22;3324;50.796;7.228;2024-03-08T00:07:39;4.90;99.90
6581;DHT22;3324;50.796;7.228;2024-03-08T00:10:05;4.90;99.90
6581;DHT22;3324;50.796;7.228;2024-03-08T00:12:32;4.90;99.90
6581;DHT22;3324;50.796;7.228;2024-03-08T00:14:58;4.90;99.90
6581;DHT22;3324;50.796;7.228;2024-03-08T00:17:24;4.90;99.90
6581;DHT22;3324;50.796;7.228;2024-03-08T00:19:50;4.90;99.90
6581;DHT22;3324;50.796;7.228;2024-03-08T00:22:16;4.90;99.90
6581;DHT22;3324;50.796;7.228;2024-03-08T00:24:41;4.80;99.90
6581;DHT22;3324;50.796;7.228;2024-03-08T00:27:07;4.80;99.90
6581;DHT22;3324;50.796;7.228;2024-03-08T00:29:34;4.80;99.90
6581;DHT22;3324;50.796;7.228;2024-03-08T00:31:59;4.80;99.90
6581;DHT22;3324;50.796;7.228;2024-03-08T00:34:25;4.80;99.90
6581;DHT22;3324;50.796;7.228;2024-03-08T00:36:50;4.80;99.90
6581;DHT22;3324;50.796;7.228;2024-03-08T00:39:17;4.80;99.90
6581;DHT22;3324;50.796;7.228;2024-03-08T00:41:45;4.70;99.90
6581;DHT22;3324;50.796;7.228;2024-03-08T00:44:10;4.70;99.90
6581;DHT22;3324;50.796;7.228;2024-03-08T00:46:36;4.70;99.90
6581;DHT22;3324;50.796;7.228;2024-03-08T00:49:01;4.70;99.90
6581;DHT22;3324;50.796;7.228;2024-03-08T00:51:27;4.60;99.90
6581;DHT22;3324;50.796;7.228;2024-03-08T00:53:52;4.70;99.90
6581;DHT22;3324;50.796;7.228;2024-03-08T00:56:17;4.60;99.90
6581;DHT22;3324;50.796;7.228;2024-03-08T00:58:43;4.60;99.90
6581;DHT22;3324;50.796;7.228;2024-03-08T01:01:08;4.60;99.90
6581;DHT22;3324;50.796;7.228;2024-03-08T01:03:35;4.60;99.90
6581;DHT22;3324;50.796;7.228;2024-03-08T01:06:01;4.60;99.90
6581;DHT22;3324;50.796;7.228;2024-03-08T01:08:27;4.60;99.90
6581;DHT22;3324;50.796;7.228;2024-03-08T01:10:53;4.60;99.90
6581;DHT22;3324;50.796;7.228;2024-03-08T01:13:18;4.60;99.90
6581;DHT22;3324;50.796;7.228;2024-03-08T01:15:44;4.50;99.90
6581;DHT22;3324;50.796;7.228;2024-03-08T01:18:10;4.50;99.90
6581;DHT22;3324;50.796;7.228;2024-03-08T01:20:35;4.50;99.90
6581;DHT22;3324;50.796;7.228;2024-03-08T01:23:01;4.50;99.90
6581;DHT22;3324;50.796;7.228;2024-03-08T01:25:26;4.50;99.90
6581;DHT22;3324;50.796;7.228;2024-03-08T01:27:52;4.40;99.90
6581;DHT22;3324;50.796;7.228;2024-03-08T01:30:19;4.40;99.90
6581;DHT22;3324;50.796;7.228;2024-03-08T01:32:44;4.50;99.90
6581;DHT22;3324;50.796;7.228;2024-03-08T01:35:10;4.50;99.90
6581;DHT22;3324;50.796;7.228;2024-03-08T01:37:36;4.50;99.90
6581;DHT22;3324;50.796;7.228;2024-03-08T01:40:01;4.40;99.90
6581;DHT22;3324;50.796;7.228;2024-03-08T01:42:28;4.40;99.90
6581;DHT22;3324;50.796;7.228;2024-03-08T01:44:53;4.40;99.90
6581;DHT22;3324;50.796;7.228;2024-03-08T01:47:20;4.40;99.90
6581;DHT22;3324;50.796;7.228;2024-03-08T01:49:49;4.40;99.90
6581;DHT22;3324;50.796;7.228;2024-03-08T01:52:15;4.40;99.90
6581;DHT22;3324;50.796;7.228;2024-03-08T01:54:40;4.30;99.90
6581;DHT22;3324;50.796;7.228;2024-03-08T01:57:06;4.30;99.90
6581;DHT22;3324;50.796;7.228;2024-03-08T01:59:31;4.40;99.90
6581;DHT22;3324;50.796;7.228;2024-03-08T02:01:58;4.40;99.90
6581;DHT22;3324;50.796;7.228;2024-03-08T02:04:25;4.30;99.90
6581;DHT22;3324;50.796;7.228;2024-03-08T02:06:51;4.30;99.90
6581;DHT22;3324;50.796;7.228;2024-03-08T02:09:17;4.30;99.90
6581;DHT22;3324;50.796;7.228;2024-03-08T02:11:42;4.30;99.90
6581;DHT22;3324;50.796;7.228;2024-03-08T02:14:08;4.30;99.90
6581;DHT22;3324;50.796;7.228;2024-03-08T02:16:34;4.30;99.90
6581;DHT22;3324;50.796;7.228;2024-03-08T02:19:00;4.20;99.90
6581;DHT22;3324;50.796;7.228;2024-03-08T02:21:25;4.20;99.90
6581;DHT22;3324;50.796;7.228;2024-03-08T02:23:51;4.20;99.90
6581;DHT22;3324;50.796;7.228;2024-03-08T02:26:17;4.20;99.90
6581;DHT22;3324;50.796;7.228;2024-03-08T02:28:43;4.20;99.90
6581;DHT22;3324;50.796;7.228;2024-03-08T02:31:09;4.20;99.90
6581;DHT22;3324;50.796;7.228;2024-03-08T02:33:35;4.20;99.90
6581;DHT22;3324;50.796;7.228;2024-03-08T02:36:00;4.10;99.90
6581;DHT22;3324;50.796;7.228;2024-03-08T02:38:26;4.10;99.90
6581;DHT22;3324;50.796;7.228;2024-03-08T02:40:52;4.10;99.90
6581;DHT22;3324;50.796;7.228;2024-03-08T02:43:18;4.10;99.90
6581;DHT22;3324;50.796;7.228;2024-03-08T02:45:43;4.10;99.90
6581;DHT22;3324;50.796;7.228;2024-03-08T02:48:10;4.10;99.90
6581;DHT22;3324;50.796;7.228;2024-03-08T02:50:36;4.00;99.90
6581;DHT22;3324;50.796;7.228;2024-03-08T02:53:02;4.00;99.90
6581;DHT22;3324;50.796;7.228;2024-03-08T02:55:27;3.90;99.90
6581;DHT22;3324;50.796;7.228;2024-03-08T02:57:53;4.00;99.90
6581;DHT22;3324;50.796;7.228;2024-03-08T03:00:22;4.00;99.90
6581;DHT22;3324;50.796;7.228;2024-03-08T03:02:51;3.90;99.90
6581;DHT22;3324;50.796;7.228;2024-03-08T03:05:19;3.90;99.90
6581;DHT22;3324;50.796;7.228;2024-03-08T03:07:45;3.90;99.90
6581;DHT22;3324;50.796;7.228;2024-03-08T03:10:12;3.90;99.90
6581;DHT22;3324;50.796;7.228;2024-03-08T03:12:43;3.90;99.90
6581;DHT22;3324;50.796;7.228;2024-03-08T03:15:10;3.90;99.90
6581;DHT22;3324;50.796;7.228;2024-03-08T03:17:35;3.80;99.90
6581;DHT22;3324;50.796;7.228;2024-03-08T03:20:01;3.80;99.90
6581;DHT22;3324;50.796;7.228;2024-03-08T03:22:34;3.80;99.90
6581;DHT22;3324;50.796;7.228;2024-03-08T03:25:00;3.80;99.90
6581;DHT22;3324;50.796;7.228;2024-03-08T03:27:25;3.80;99.90
6581;DHT22;3324;50.796;7.228;2024-03-08T03:29:51;3.80;99.90
6581;DHT22;3324;50.796;7.228;2024-03-08T03:32:17;3.80;99.90
6581;DHT22;3324;50.796;7.228;2024-03-08T03:34:44;3.80;99.90
6581;DHT22;3324;50.796;7.228;2024-03-08T03:37:09;3.80;99.90
6581;DHT22;3324;50.796;7.228;2024-03-08T03:39:38;3.70;99.90
6581;DHT22;3324;50.796;7.228;2024-03-08T03:42:18;3.70;99.90
6581;DHT22;3324;50.796;7.228;2024-03-08T03:44:45;3.70;99.90
6581;DHT22;3324;50.796;7.228;2024-03-08T03:47:10;3.70;99.90
6581;DHT22;3324;50.796;7.228;2024-03-08T03:49:36;3.70;99.90
6581;DHT22;3324;50.796;7.228;2024-03-08T03:52:02;3.70;99.90
6581;DHT22;3324;50.796;7.228;2024-03-08T03:54:29;3.70;99.90
6581;DHT22;3324;50.796;7.228;2024-03-08T03:56:56;3.70;99.90
6581;DHT22;3324;50.796;7.228;2024-03-08T03:59:21;3.60;99.90
6581;DHT22;3324;50.796;7.228;2024-03-08T04:01:47;3.60;99.90
6581;DHT22;3324;50.796;7.228;2024-03-08T04:04:12;3.60;99.90
6581;DHT22;3324;50.796;7.228;2024-03-08T04:06:38;3.60;99.90
6581;DHT22;3324;50.796;7.228;2024-03-08T04:09:03;3.60;99.90
6581;DHT22;3324;50.796;7.228;2024-03-08T04:11:31;3.60;99.90
6581;DHT22;3324;50.796;7.228;2024-03-08T04:13:57;3.60;99.90
6581;DHT22;3324;50.796;7.228;2024-03-08T04:16:22;3.50;99.90
6581;DHT22;3324;50.796;7.228;2024-03-08T04:18:49;3.50;99.90
6581;DHT22;3324;50.796;7.228;2024-03-08T04:21:14;3.50;99.90
6581;DHT22;3324;50.796;7.228;2024-03-08T04:23:40;3.50;99.90
6581;DHT22;3324;50.796;7.228;2024-03-08T04:26:05;3.40;99.90
6581;DHT22;3324;50.796;7.228;2024-03-08T04:28:31;3.40;99.90
6581;DHT22;3324;50.796;7.228;2024-03-08T04:30:57;3.40;99.90
6581;DHT22;3324;50.796;7.228;2024-03-08T04:33:22;3.40;99.90
6581;DHT22;3324;50.796;7.228;2024-03-08T04:35:49;3.40;99.90
6581;DHT22;3324;50.796;7.228;2024-03-08T04:38:14;3.40;99.90
6581;DHT22;3324;50.796;7.228;2024-03-08T04:40:41;3.40;99.90
6581;DHT22;3324;50.796;7.228;2024-03-08T04:43:06;3.30;99.90
6581;DHT22;3324;50.796;7.228;2024-03-08T04:45:33;3.30;99.90
6581;DHT22;3324;50.796;7.228;2024-03-08T04:47:59;3.30;99.90
6581;DHT22;3324;50.796;7.228;2024-03-08T04:50:24;3.30;99.90
6581;DHT22;3324;50.796;7.228;2024-03-08T04:52:50;3.30;99.90
6581;DHT22;3324;50.796;7.228;2024-03-08T04:55:15;3.30;99.90
6581;DHT22;3324;50.796;7.228;2024-03-08T04:57:41;3.40;99.90
6581;DHT22;3324;50.796;7.228;2024-03-08T05:00:08;3.30;99.90
6581;DHT22;3324;50.796;7.228;2024-03-08T05:02:36;3.30;99.90
6581;DHT22;3324;50.796;7.228;2024-03-08T05:05:07;3.30;99.90
6581;DHT22;3324;50.796;7.228;2024-03-08T05:07:32;3.30;99.90
6581;DHT22;3324;50.796;7.228;2024-03-08T05:10:01;3.20;99.90
6581;DHT22;3324;50.796;7.228;2024-03-08T05:12:27;3.20;99.90
6581;DHT22;3324;50.796;7.228;2024-03-08T05:14:53;3.10;99.90
6581;DHT22;3324;50.796;7.228;2024-03-08T05:17:19;3.10;99.90
6581;DHT22;3324;50.796;7.228;2024-03-08T05:19:44;3.10;99.90
6581;DHT22;3324;50.796;7.228;2024-03-08T05:22:10;3.10;99.90
6581;DHT22;3324;50.796;7.228;2024-03-08T05:24:36;3.20;99.90
6581;DHT22;3324;50.796;7.228;2024-03-08T05:27:01;3.10;99.90
6581;DHT22;3324;50.796;7.228;2024-03-08T05:29:28;3.20;99.90
6581;DHT22;3324;50.796;7.228;2024-03-08T05:31:54;3.20;99.90
6581;DHT22;3324;50.796;7.228;2024-03-08T05:34:20;3.20;99.90
6581;DHT22;3324;50.796;7.228;2024-03-08T05:36:47;3.10;99.90
6581;DHT22;3324;50.796;7.228;2024-03-08T05:39:18;3.10;99.90
6581;DHT22;3324;50.796;7.228;2024-03-08T05:41:43;3.00;99.90
6581;DHT22;3324;50.796;7.228;2024-03-08T05:44:09;3.00;99.90
6581;DHT22;3324;50.796;7.228;2024-03-08T05:46:35;2.90;99.90
6581;DHT22;3324;50.796;7.228;2024-03-08T05:49:01;2.90;99.90
6581;DHT22;3324;50.796;7.228;2024-03-08T05:51:38;2.90;99.90
6581;DHT22;3324;50.796;7.228;2024-03-08T05:54:04;2.80;99.90
6581;DHT22;3324;50.796;7.228;2024-03-08T05:56:35;2.80;99.90
6581;DHT22;3324;50.796;7.228;2024-03-08T05:59:01;2.80;99.90
6581;DHT22;3324;50.796;7.228;2024-03-08T06:01:26;2.80;99.90
6581;DHT22;3324;50.796;7.228;2024-03-08T06:03:55;2.80;99.90
6581;DHT22;3324;50.796;7.228;2024-03-08T06:06:25;2.80;99.90
6581;DHT22;3324;50.796;7.228;2024-03-08T06:08:51;2.80;99.90
6581;DHT22;3324;50.796;7.228;2024-03-08T06:11:16;2.80;99.90
6581;DHT22;3324;50.796;7.228;2024-03-08T06:13:45;2.80;99.90
6581;DHT22;3324;50.796;7.228;2024-03-08T06:16:11;2.80;99.90
6581;DHT22;3324;50.796;7.228;2024-03-08T06:18:37;2.80;99.90
6581;DHT22;3324;50.796;7.228;2024-03-08T06:21:06;2.80;99.90
6581;DHT22;3324;50.796;7.228;2024-03-08T06:23:32;2.80;99.90
6581;DHT22;3324;50.796;7.228;2024-03-08T06:25:57;2.80;99.90
6581;DHT22;3324;50.796;7.228;2024-03-08T06:28:23;2.80;99.90
6581;DHT22;3324;50.796;7.228;2024-03-08T06:30:48;2.90;99.90
6581;DHT22;3324;50.796;7.228;2024-03-08T06:33:16;2.90;99.90
6581;DHT22;3324;50.796;7.228;2024-03-08T06:35:41;2.90;99.90
6581;DHT22;3324;50.796;7.228;2024-03-08T06:38:07;2.90;99.90
6581;DHT22;3324;50.796;7.228;2024-03-08T06:40:32;3.00;99.90
6581;DHT22;3324;50.796;7.228;2024-03-08T06:42:58;3.00;99.90
6581;DHT22;3324;50.796;7.228;2024-03-08T06:45:23;3.10;99.90
6581;DHT22;3324;50.796;7.228;2024-03-08T06:47:49;3.10;99.90
6581;DHT22;3324;50.796;7.228;2024-03-08T06:50:15;3.20;99.90
6581;DHT22;3324;50.796;7.228;2024-03-08T06:52:40;3.20;99.90
6581;DHT22;3324;50.796;7.228;2024-03-08T06:55:08;3.10;99.90
6581;DHT22;3324;50.796;7.228;2024-03-08T06:57:38;3.10;99.90
6581;DHT22;3324;50.796;7.228;2024-03-08T07:00:04;3.20;99.90
6581;DHT22;3324;50.796;7.228;2024-03-08T07:02:30;3.30;99.90
6581;DHT22;3324;50.796;7.228;2024-03-08T07:04:57;3.30;99.90
6581;DHT22;3324;50.796;7.228;2024-03-08T07:07:23;3.40;99.90
6581;DHT22;3324;50.796;7.228;2024-03-08T07:09:49;3.40;99.90
6581;DHT22;3324;50.796;7.228;2024-03-08T07:12:15;3.50;99.90
6581;DHT22;3324;50.796;7.228;2024-03-08T07:14:40;3.50;99.90
6581;DHT22;3324;50.796;7.228;2024-03-08T07:17:06;3.50;99.90
6581;DHT22;3324;50.796;7.228;2024-03-08T07:19:34;3.60;99.90
6581;DHT22;3324;50.796;7.228;2024-03-08T07:21:59;3.70;99.90
6581;DHT22;3324;50.796;7.228;2024-03-08T07:24:25;3.70;99.90
6581;DHT22;3324;50.796;7.228;2024-03-08T07:27:16;3.70;99.90
6581;DHT22;3324;50.796;7.228;2024-03-08T07:29:41;3.90;99.90
6581;DHT22;3324;50.796;7.228;2024-03-08T07:32:07;4.00;99.90
6581;DHT22;3324;50.796;7.228;2024-03-08T07:34:45;4.10;99.90
6581;DHT22;3324;50.796;7.228;2024-03-08T07:37:10;4.20;99.90
6581;DHT22;3324;50.796;7.228;2024-03-08T07:39:37;4.20;99.90
6581;DHT22;3324;50.796;7.228;2024-03-08T07:42:03;4.30;99.90
6581;DHT22;3324;50.796;7.228;2024-03-08T07:44:28;4.50;99.90
6581;DHT22;3324;50.796;7.228;2024-03-08T07:46:55;4.60;99.90
6581;DHT22;3324;50.796;7.228;2024-03-08T07:49:20;4.60;99.90
6581;DHT22;3324;50.796;7.228;2024-03-08T07:51:46;4.80;99.90
6581;DHT22;3324;50.796;7.228;2024-03-08T07:54:11;4.90;99.90
6581;DHT22;3324;50.796;7.228;2024-03-08T07:56:36;5.00;99.90
6581;DHT22;3324;50.796;7.228;2024-03-08T07:59:02;5.10;99.90
6581;DHT22;3324;50.796;7.228;2024-03-08T08:01:29;5.20;99.90
6581;DHT22;3324;50.796;7.228;2024-03-08T08:03:56;5.30;99.90
6581;DHT22;3324;50.796;7.228;2024-03-08T08:06:22;5.40;99.90
6581;DHT22;3324;50.796;7.228;2024-03-08T08:08:47;5.50;99.90
6581;DHT22;3324;50.796;7.228;2024-03-08T08:11:13;5.60;99.90
6581;DHT22;3324;50.796;7.228;2024-03-08T08:13:40;5.60;99.90
6581;DHT22;3324;50.796;7.228;2024-03-08T08:16:08;5.70;99.90
6581;DHT22;3324;50.796;7.228;2024-03-08T08:18:34;5.80;99.90
6581;DHT22;3324;50.796;7.228;2024-03-08T08:21:01;5.90;99.90
6581;DHT22;3324;50.796;7.228;2024-03-08T08:23:27;6.00;99.90
6581;DHT22;3324;50.796;7.228;2024-03-08T08:25:52;6.10;99.90
6581;DHT22;3324;50.796;7.228;2024-03-08T08:28:18;6.20;99.90
6581;DHT22;3324;50.796;7.228;2024-03-08T08:30:44;6.40;99.90
6581;DHT22;3324;50.796;7.228;2024-03-08T08:33:09;6.50;99.90
6581;DHT22;3324;50.796;7.228;2024-03-08T08:35:36;6.60;99.90
6581;DHT22;3324;50.796;7.228;2024-03-08T08:38:02;6.60;99.90
6581;DHT22;3324;50.796;7.228;2024-03-08T08:40:29;6.70;99.90
6581;DHT22;3324;50.796;7.228;2024-03-08T08:42:56;6.70;99.90
6581;DHT22;3324;50.796;7.228;2024-03-08T08:45:23;6.80;99.90
6581;DHT22;3324;50.796;7.228;2024-03-08T08:47:48;6.90;99.90
6581;DHT22;3324;50.796;7.228;2024-03-08T08:50:15;7.00;99.90
6581;DHT22;3324;50.796;7.228;2024-03-08T08:52:41;7.10;99.90
6581;DHT22;3324;50.796;7.228;2024-03-08T08:55:10;7.20;99.90
6581;DHT22;3324;50.796;7.228;2024-03-08T08:57:40;7.20;99.90
6581;DHT22;3324;50.796;7.228;2024-03-08T09:00:05;7.30;99.90
6581;DHT22;3324;50.796;7.228;2024-03-08T09:02:33;7.30;99.90
6581;DHT22;3324;50.796;7.228;2024-03-08T09:04:58;7.40;99.90
6581;DHT22;3324;50.796;7.228;2024-03-08T09:07:24;7.50;99.90
6581;DHT22;3324;50.796;7.228;2024-03-08T09:09:49;7.60;99.90
6581;DHT22;3324;50.796;7.228;2024-03-08T09:12:15;7.60;99.90
6581;DHT22;3324;50.796;7.228;2024-03-08T09:14:41;7.70;99.90
6581;DHT22;3324;50.796;7.228;2024-03-08T09:17:07;7.80;99.90
6581;DHT22;3324;50.796;7.228;2024-03-08T09:19:37;7.90;99.90
6581;DHT22;3324;50.796;7.228;2024-03-08T09:22:03;8.00;99.90
6581;DHT22;3324;50.796;7.228;2024-03-08T09:24:29;8.10;99.90
6581;DHT22;3324;50.796;7.228;2024-03-08T09:26:56;8.20;99.90
6581;DHT22;3324;50.796;7.228;2024-03-08T09:29:22;8.30;99.90
6581;DHT22;3324;50.796;7.228;2024-03-08T09:31:48;8.50;99.90
6581;DHT22;3324;50.796;7.228;2024-03-08T09:34:14;8.60;99.90
6581;DHT22;3324;50.796;7.228;2024-03-08T09:36:39;8.70;99.90
6581;DHT22;3324;50.796;7.228;2024-03-08T09:39:06;8.80;99.90
6581;DHT22;3324;50.796;7.228;2024-03-08T09:41:33;8.80;99.90
6581;DHT22;3324;50.796;7.228;2024-03-08T09:43:59;8.80;99.90
6581;DHT22;3324;50.796;7.228;2024-03-08T09:46:25;8.90;99.90
6581;DHT22;3324;50.796;7.228;2024-03-08T09:48:52;9.00;99.90
6581;DHT22;3324;50.796;7.228;2024-03-08T09:51:20;9.00;99.90
6581;DHT22;3324;50.796;7.228;2024-03-08T09:53:49;9.10;99.90
6581;DHT22;3324;50.796;7.228;2024-03-08T09:56:14;9.10;99.90
6581;DHT22;3324;50.796;7.228;2024-03-08T09:58:40;9.20;99.90
6581;DHT22;3324;50.796;7.228;2024-03-08T10:01:28;9.20;99.90
6581;DHT22;3324;50.796;7.228;2024-03-08T10:03:53;9.30;99.90
6581;DHT22;3324;50.796;7.228;2024-03-08T10:06:22;9.40;99.90
6581;DHT22;3324;50.796;7.228;2024-03-08T10:08:48;9.40;99.90
6581;DHT22;3324;50.796;7.228;2024-03-08T10:11:13;9.40;99.90
6581;DHT22;3324;50.796;7.228;2024-03-08T10:13:39;9.50;99.90
6581;DHT22;3324;50.796;7.228;2024-03-08T10:16:06;9.60;99.90
6581;DHT22;3324;50.796;7.228;2024-03-08T10:18:32;9.60;99.90
6581;DHT22;3324;50.796;7.228;2024-03-08T10:21:04;9.70;99.90
6581;DHT22;3324;50.796;7.228;2024-03-08T10:23:30;9.70;99.90
6581;DHT22;3324;50.796;7.228;2024-03-08T10:25:56;9.70;99.90
6581;DHT22;3324;50.796;7.228;2024-03-08T10:28:23;9.70;99.90
6581;DHT22;3324;50.796;7.228;2024-03-08T10:30:50;9.80;99.90
6581;DHT22;3324;50.796;7.228;2024-03-08T10:33:15;9.80;99.90
6581;DHT22;3324;50.796;7.228;2024-03-08T10:35:41;9.80;99.90
6581;DHT22;3324;50.796;7.228;2024-03-08T10:38:07;9.80;99.90
6581;DHT22;3324;50.796;7.228;2024-03-08T10:40:34;9.80;99.90
6581;DHT22;3324;50.796;7.228;2024-03-08T10:43:01;9.80;99.90
6581;DHT22;3324;50.796;7.228;2024-03-08T10:50:41;9.90;99.90
6581;DHT22;3324;50.796;7.228;2024-03-08T10:53:07;10.00;99.90
6581;DHT22;3324;50.796;7.228;2024-03-08T10:55:35;10.10;99.90
6581;DHT22;3324;50.796;7.228;2024-03-08T10:58:02;10.10;99.90
6581;DHT22;3324;50.796;7.228;2024-03-08T11:00:27;10.10;99.90
6581;DHT22;3324;50.796;7.228;2024-03-08T11:02:53;10.20;99.90
6581;DHT22;3324;50.796;7.228;2024-03-08T11:08:01;10.30;99.90
6581;DHT22;3324;50.796;7.228;2024-03-08T11:10:27;10.30;99.90
6581;DHT22;3324;50.796;7.228;2024-03-08T11:12:53;10.30;99.90
6581;DHT22;3324;50.796;7.228;2024-03-08T11:15:18;10.40;99.90
6581;DHT22;3324;50.796;7.228;2024-03-08T11:17:44;10.50;99.90
6581;DHT22;3324;50.796;7.228;2024-03-08T11:20:14;10.60;99.90
6581;DHT22;3324;50.796;7.228;2024-03-08T11:25:31;10.80;99.90
6581;DHT22;3324;50.796;7.228;2024-03-08T11:28:17;10.80;99.90
6581;DHT22;3324;50.796;7.228;2024-03-08T11:30:43;10.80;99.90
6581;DHT22;3324;50.796;7.228;2024-03-08T11:33:13;10.90;99.90
6581;DHT22;3324;50.796;7.228;2024-03-08T11:35:39;10.90;99.90
6581;DHT22;3324;50.796;7.228;2024-03-08T11:38:05;10.80;99.90
6581;DHT22;3324;50.796;7.228;2024-03-08T11:40:30;10.90;99.90
6581;DHT22;3324;50.796;7.228;2024-03-08T11:42:58;11.00;99.90
6581;DHT22;3324;50.796;7.228;2024-03-08T11:45:24;11.00;99.90
6581;DHT22;3324;50.796;7.228;2024-03-08T11:47:50;11.20;99.90
6581;DHT22;3324;50.796;7.228;2024-03-08T11:50:16;11.30;99.90
6581;DHT22;3324;50.796;7.228;2024-03-08T11:52:42;11.40;99.90
6581;DHT22;3324;50.796;7.228;2024-03-08T11:55:08;11.40;99.90
6581;DHT22;3324;50.796;7.228;2024-03-08T11:57:34;11.40;99.90
6581;DHT22;3324;50.796;7.228;2024-03-08T12:00:00;11.50;99.90
6581;DHT22;3324;50.796;7.228;2024-03-08T12:02:32;11.50;99.90
6581;DHT22;3324;50.796;7.228;2024-03-08T12:05:00;11.60;99.90
6581;DHT22;3324;50.796;7.228;2024-03-08T12:07:31;11.60;99.90
6581;DHT22;3324;50.796;7.228;2024-03-08T12:12:45;11.60;99.90
6581;DHT22;3324;50.796;7.228;2024-03-08T12:15:12;11.60;99.90
6581;DHT22;3324;50.796;7.228;2024-03-08T12:17:38;11.60;99.90
6581;DHT22;3324;50.796;7.228;2024-03-08T12:20:37;11.60;99.90
6581;DHT22;3324;50.796;7.228;2024-03-08T12:22:56;11.70;99.90
6581;DHT22;3324;50.796;7.228;2024-03-08T12:25:22;11.70;99.90
6581;DHT22;3324;50.796;7.228;2024-03-08T12:27:48;11.80;99.90
6581;DHT22;3324;50.796;7.228;2024-03-08T12:30:20;11.90;99.90
6581;DHT22;3324;50.796;7.228;2024-03-08T12:32:56;12.00;99.90
6581;DHT22;3324;50.796;7.228;2024-03-08T12:35:23;12.10;99.90
6581;DHT22;3324;50.796;7.228;2024-03-08T12:37:50;12.20;99.90
6581;DHT22;3324;50.796;7.228;2024-03-08T12:40:16;12.30;99.90
6581;DHT22;3324;50.796;7.228;2024-03-08T12:42:43;12.30;99.90
6581;DHT22;3324;50.796;7.228;2024-03-08T12:45:08;12.40;99.90
6581;DHT22;3324;50.796;7.228;2024-03-08T12:47:35;12.50;99.90
6581;DHT22;3324;50.796;7.228;2024-03-08T12:50:01;12.60;99.90
6581;DHT22;3324;50.796;7.228;2024-03-08T12:52:27;12.80;99.90
6581;DHT22;3324;50.796;7.228;2024-03-08T12:54:52;12.80;99.90
6581;DHT22;3324;50.796;7.228;2024-03-08T12:57:18;12.90;99.90
6581;DHT22;3324;50.796;7.228;2024-03-08T12:59:43;13.00;99.90
6581;DHT22;3324;50.796;7.228;2024-03-08T13:02:10;13.10;99.90
6581;DHT22;3324;50.796;7.228;2024-03-08T13:04:36;13.10;99.90
6581;DHT22;3324;50.796;7.228;2024-03-08T13:07:02;13.10;99.90
6581;DHT22;3324;50.796;7.228;2024-03-08T13:09:27;13.00;99.90
6581;DHT22;3324;50.796;7.228;2024-03-08T13:11:53;13.00;99.90
6581;DHT22;3324;50.796;7.228;2024-03-08T13:14:20;12.80;99.90
6581;DHT22;3324;50.796;7.228;2024-03-08T13:16:46;12.70;99.90
6581;DHT22;3324;50.796;7.228;2024-03-08T13:19:13;12.60;99.90
6581;DHT22;3324;50.796;7.228;2024-03-08T13:21:39;12.70;99.90
6581;DHT22;3324;50.796;7.228;2024-03-08T13:24:04;12.70;99.90
6581;DHT22;3324;50.796;7.228;2024-03-08T13:26:30;12.60;99.90
6581;DHT22;3324;50.796;7.228;2024-03-08T13:28:59;12.70;99.90
6581;DHT22;3324;50.796;7.228;2024-03-08T13:31:26;12.90;99.90
6581;DHT22;3324;50.796;7.228;2024-03-08T13:33:51;13.00;99.90
6581;DHT22;3324;50.796;7.228;2024-03-08T13:36:23;13.00;99.90
6581;DHT22;3324;50.796;7.228;2024-03-08T13:38:54;13.00;99.90
6581;DHT22;3324;50.796;7.228;2024-03-08T13:41:19;13.00;99.90
6581;DHT22;3324;50.796;7.228;2024-03-08T13:43:47;13.10;99.90
6581;DHT22;3324;50.796;7.228;2024-03-08T13:46:16;13.10;99.90
6581;DHT22;3324;50.796;7.228;2024-03-08T13:48:42;12.90;99.90
6581;DHT22;3324;50.796;7.228;2024-03-08T13:51:08;12.90;99.90
6581;DHT22;3324;50.796;7.228;2024-03-08T13:53:37;13.00;99.90
6581;DHT22;3324;50.796;7.228;2024-03-08T13:56:03;13.10;99.90
6581;DHT22;3324;50.796;7.228;2024-03-08T13:58:29;13.10;99.90
6581;DHT22;3324;50.796;7.228;2024-03-08T14:00:54;13.10;99.90
6581;DHT22;3324;50.796;7.228;2024-03-08T14:03:21;13.30;99.90
6581;DHT22;3324;50.796;7.228;2024-03-08T14:05:46;13.20;99.90
6581;DHT22;3324;50.796;7.228;2024-03-08T14:08:14;13.20;99.90
6581;DHT22;3324;50.796;7.228;2024-03-08T14:10:41;13.20;99.90
6581;DHT22;3324;50.796;7.228;2024-03-08T14:13:07;13.30;99.90
6581;DHT22;3324;50.796;7.228;2024-03-08T14:15:34;13.20;99.90
6581;DHT22;3324;50.796;7.228;2024-03-08T14:18:00;13.10;99.90
6581;DHT22;3324;50.796;7.228;2024-03-08T14:20:26;13.10;99.90
6581;DHT22;3324;50.796;7.228;2024-03-08T14:22:52;13.00;99.90
6581;DHT22;3324;50.796;7.228;2024-03-08T14:25:18;13.00;99.90
6581;DHT22;3324;50.796;7.228;2024-03-08T14:27:45;13.10;99.90
6581;DHT22;3324;50.796;7.228;2024-03-08T14:30:11;13.20;99.90
6581;DHT22;3324;50.796;7.228;2024-03-08T14:32:36;13.30;99.90
6581;DHT22;3324;50.796;7.228;2024-03-08T14:35:06;13.30;99.90
6581;DHT22;3324;50.796;7.228;2024-03-08T14:37:31;13.20;99.90
6581;DHT22;3324;50.796;7.228;2024-03-08T14:39:57;13.10;99.90
6581;DHT22;3324;50.796;7.228;2024-03-08T14:42:23;13.10;99.90
6581;DHT22;3324;50.796;7.228;2024-03-08T14:44:51;13.10;99.90
6581;DHT22;3324;50.796;7.228;2024-03-08T14:47:19;13.10;99.90
6581;DHT22;3324;50.796;7.228;2024-03-08T14:49:44;13.00;99.90
6581;DHT22;3324;50.796;7.228;2024-03-08T14:52:10;13.00;99.90
6581;DHT22;3324;50.796;7.228;2024-03-08T14:54:54;12.90;99.90
6581;DHT22;3324;50.796;7.228;2024-03-08T14:57:21;12.90;99.90
6581;DHT22;3324;50.796;7.228;2024-03-08T14:59:47;12.90;99.90
6581;DHT22;3324;50.796;7.228;2024-03-08T15:02:13;12.80;99.90
6581;DHT22;3324;50.796;7.228;2024-03-08T15:04:38;12.80;99.90
6581;DHT22;3324;50.796;7.228;2024-03-08T15:07:06;12.70;99.90
6581;DHT22;3324;50.796;7.228;2024-03-08T15:09:35;12.60;99.90
6581;DHT22;3324;50.796;7.228;2024-03-08T15:12:06;12.40;99.90
6581;DHT22;3324;50.796;7.228;2024-03-08T15:14:31;12.40;99.90
6581;DHT22;3324;50.796;7.228;2024-03-08T15:16:58;12.30;99.90
6581;DHT22;3324;50.796;7.228;2024-03-08T15:19:23;12.30;99.90
6581;DHT22;3324;50.796;7.228;2024-03-08T15:21:50;12.40;99.90
6581;DHT22;3324;50.796;7.228;2024-03-08T15:24:20;12.40;99.90
6581;DHT22;3324;50.796;7.228;2024-03-08T15:26:47;12.40;99.90
6581;DHT22;3324;50.796;7.228;2024-03-08T15:29:16;12.40;99.90
6581;DHT22;3324;50.796;7.228;2024-03-08T15:31:41;12.40;99.90
6581;DHT22;3324;50.796;7.228;2024-03-08T15:34:08;12.40;99.90
6581;DHT22;3324;50.796;7.228;2024-03-08T15:36:36;12.30;99.90
6581;DHT22;3324;50.796;7.228;2024-03-08T15:39:02;12.30;99.90
6581;DHT22;3324;50.796;7.228;2024-03-08T15:41:28;12.20;99.90
6581;DHT22;3324;50.796;7.228;2024-03-08T15:43:55;12.20;99.90
6581;DHT22;3324;50.796;7.228;2024-03-08T15:46:21;12.10;99.90
6581;DHT22;3324;50.796;7.228;2024-03-08T15:48:48;12.00;99.90
6581;DHT22;3324;50.796;7.228;2024-03-08T15:51:14;12.00;99.90
6581;DHT22;3324;50.796;7.228;2024-03-08T15:53:42;11.90;99.90
6581;DHT22;3324;50.796;7.228;2024-03-08T15:56:09;11.90;99.90
6581;DHT22;3324;50.796;7.228;2024-03-08T15:58:35;11.80;99.90
6581;DHT22;3324;50.796;7.228;2024-03-08T16:01:01;11.70;99.90
6581;DHT22;3324;50.796;7.228;2024-03-08T16:03:26;11.80;99.90
6581;DHT22;3324;50.796;7.228;2024-03-08T16:05:56;11.70;99.90
6581;DHT22;3324;50.796;7.228;2024-03-08T16:08:23;11.70;99.90
6581;DHT22;3324;50.796;7.228;2024-03-08T16:10:49;11.60;99.90
6581;DHT22;3324;50.796;7.228;2024-03-08T16:13:18;11.60;99.90
6581;DHT22;3324;50.796;7.228;2024-03-08T16:15:45;11.50;99.90
6581;DHT22;3324;50.796;7.228;2024-03-08T16:18:11;11.50;99.90
6581;DHT22;3324;50.796;7.228;2024-03-08T16:20:38;11.40;99.90